Time;durP1;ratioP1;P1;durP2;ratioP2;P2;SDS_P1;SDS_P2;PMS_P1;PMS_P2;Temp;Humidity;BMP_temperature;BMP_pressure;BME280_temperature;BME280_humidity;BME280_pressure;Samples;Min_cycle;Max_cycle;Signal;HPM_P1;HPM_P2
2023/11/20 00:02:13;;;;;;;;;;;;;;;9.78;100.00;100385.91;6217017;23;19919;-85
2023/11/20 00:04:38;;;;;;;;;;;;;;;9.73;100.00;100378.44;6219193;23;20293;-86
2023/11/20 00:07:07;;;;;;;;;;;;;;;9.80;100.00;100399.94;6220474;23;19919;-86
2023/11/20 00:09:35;;;;;;;;;;;;;;;9.80;100.00;100391.88;6218845;23;19920;-86
2023/11/20 00:12:03;;;;;;;;;;;;;;;9.83;100.00;100391.47;6235341;23;20383;-86
2023/11/20 00:14:38;;;;;;;;;;;;;;;9.80;100.00;100400.78;6224965;22;19920;-86
2023/11/20 00:17:03;;;;;;;;;;;;;;;9.78;100.00;100399.34;6219893;23;19912;-82
2023/11/20 00:19:30;;;;;;;;;;;;;;;9.80;100.00;100390.03;6215861;23;19912;-79
2023/11/20 00:21:55;;;;;;;;;;;;;;;9.77;100.00;100395.00;6215853;23;19912;-80
2023/11/20 00:24:20;;;;;;;;;;;;;;;9.79;100.00;100398.31;6215647;23;19912;-80
2023/11/20 00:26:45;;;;;;;;;;;;;;;9.76;100.00;100396.84;6217001;23;19912;-80
2023/11/20 00:29:11;;;;;;;;;;;;;;;9.78;100.00;100396.66;6216943;23;19928;-80
2023/11/20 00:31:36;;;;;;;;;;;;;;;9.76;100.00;100399.53;6216637;23;19931;-80
2023/11/20 00:34:01;;;;;;;;;;;;;;;9.82;100.00;100406.78;6218554;23;20283;-80
2023/11/20 00:36:27;;;;;;;;;;;;;;;9.85;100.00;100395.63;6218647;23;19919;-80
2023/11/20 00:38:52;;;;;;;;;;;;;;;9.82;100.00;100405.94;6216461;23;19942;-80
2023/11/20 00:41:18;;;;;;;;;;;;;;;9.77;100.00;100403.88;6218402;23;19912;-80
2023/11/20 00:43:44;;;;;;;;;;;;;;;9.79;100.00;100412.56;6217051;23;19912;-80
2023/11/20 00:46:09;;;;;;;;;;;;;;;9.75;100.00;100403.25;6216851;23;19939;-81
2023/11/20 00:48:35;;;;;;;;;;;;;;;9.70;100.00;100409.25;6218324;23;19916;-81
2023/11/20 00:51:00;;;;;;;;;;;;;;;9.66;100.00;100412.53;6220079;23;19919;-81
2023/11/20 00:53:31;;;;;;;;;;;;;;;9.68;100.00;100415.84;6215267;23;19946;-81
2023/11/20 00:55:56;;;;;;;;;;;;;;;9.70;100.00;100420.00;6214814;23;19912;-81
2023/11/20 00:58:22;;;;;;;;;;;;;;;9.67;100.00;100419.56;6214355;23;19912;-81
2023/11/20 01:00:48;;;;;;;;;;;;;;;9.67;100.00;100411.50;6214477;23;19912;-80
2023/11/20 01:03:13;;;;;;;;;;;;;;;9.64;100.00;100419.97;6215688;23;19923;-80
2023/11/20 01:05:38;;;;;;;;;;;;;;;9.73;100.00;100423.31;6213855;23;19919;-81
2023/11/20 01:08:06;;;;;;;;;;;;;;;9.71;100.00;100418.13;6213678;23;19919;-80
2023/11/20 01:10:31;;;;;;;;;;;;;;;9.71;100.00;100418.13;6215158;23;19927;-80
2023/11/20 01:12:56;;;;;;;;;;;;;;;9.72;100.00;100425.16;6211734;23;19920;-80
2023/11/20 01:15:22;;;;;;;;;;;;;;;9.65;100.00;100427.00;6215034;23;19912;-80
2023/11/20 01:17:47;;;;;;;;;;;;;;;9.59;100.00;100417.06;6217757;23;19927;-81
2023/11/20 01:20:12;;;;;;;;;;;;;;;9.55;100.00;100430.88;6215411;23;19912;-80
2023/11/20 01:22:37;;;;;;;;;;;;;;;9.56;100.00;100427.16;6215455;23;19922;-81
2023/11/20 01:25:03;;;;;;;;;;;;;;;9.57;100.00;100430.69;6216306;23;19912;-80
2023/11/20 01:27:28;;;;;;;;;;;;;;;9.56;100.00;100429.03;6214449;23;19923;-80
2023/11/20 01:29:54;;;;;;;;;;;;;;;9.63;100.00;100427.19;6214628;23;19911;-80
2023/11/20 01:32:19;;;;;;;;;;;;;;;9.65;100.00;100429.69;6215619;23;19970;-80
2023/11/20 01:34:44;;;;;;;;;;;;;;;9.66;100.00;100434.03;6215726;23;19916;-81
2023/11/20 01:37:09;;;;;;;;;;;;;;;9.64;100.00;100441.47;6214755;23;19987;-80
2023/11/20 01:39:40;;;;;;;;;;;;;;;9.63;100.00;100437.94;6215609;23;19912;-80
2023/11/20 01:42:06;;;;;;;;;;;;;;;9.66;100.00;100434.03;6213931;23;19923;-80
2023/11/20 01:44:31;;;;;;;;;;;;;;;9.63;100.00;100439.81;6217435;23;19912;-80
2023/11/20 01:46:56;;;;;;;;;;;;;;;9.58;100.00;100428.81;6220364;23;19999;-80
2023/11/20 01:49:22;;;;;;;;;;;;;;;9.56;100.00;100439.78;6222504;23;19924;-81
2023/11/20 01:57:44;;;;;;;;;;;;;;;9.56;100.00;100440.59;6219267;23;19919;-82
2023/11/20 02:03:54;;;;;;;;;;;;;;;9.59;100.00;100433.16;6217265;23;20355;-81
2023/11/20 02:06:29;;;;;;;;;;;;;;;9.56;100.00;100437.91;6215870;23;19916;-81
2023/11/20 02:12:37;;;;;;;;;;;;;;;9.56;100.00;100435.22;6215492;23;19954;-81
2023/11/20 02:15:02;;;;;;;;;;;;;;;9.55;100.00;100438.94;6217650;23;19916;-82
2023/11/20 02:17:43;;;;;;;;;;;;;;;9.48;100.00;100443.47;6189650;23;20125;-81
2023/11/20 02:23:42;;;;;;;;;;;;;;;9.39;100.00;100433.91;6226866;23;19942;-81
2023/11/20 02:29:30;;;;;;;;;;;;;;;9.40;100.00;100435.56;6213526;23;19966;-81
2023/11/20 02:32:14;;;;;;;;;;;;;;;9.37;100.00;100436.81;6214068;23;20309;-81
2023/11/20 02:34:43;;;;;;;;;;;;;;;9.45;100.00;100433.13;6214337;23;19978;-81
2023/11/20 02:37:11;;;;;;;;;;;;;;;9.39;100.00;100431.22;6212481;22;19920;-81
2023/11/20 02:39:39;;;;;;;;;;;;;;;9.48;100.00;100439.94;6214612;23;20277;-81
2023/11/20 02:42:06;;;;;;;;;;;;;;;9.44;100.00;100436.03;6212925;23;19954;-81
2023/11/20 02:44:59;;;;;;;;;;;;;;;9.40;100.00;100438.25;6214411;23;19938;-81
2023/11/20 02:50:00;;;;;;;;;;;;;;;9.39;100.00;100441.97;6230478;22;19920;-81
2023/11/20 02:52:31;;;;;;;;;;;;;;;9.38;100.00;100440.31;6245176;23;19916;-81
2023/11/20 02:55:03;;;;;;;;;;;;;;;9.42;100.00;100435.41;6246048;23;19934;-80
2023/11/20 02:57:39;;;;;;;;;;;;;;;9.39;100.00;100439.28;6245439;23;20537;-81
2023/11/20 03:00:06;;;;;;;;;;;;;;;9.41;100.00;100434.53;6244531;23;20254;-80
2023/11/20 03:02:31;;;;;;;;;;;;;;;9.39;100.00;100433.91;6246501;23;19938;-81
2023/11/20 03:04:59;;;;;;;;;;;;;;;9.38;100.00;100432.25;6245933;23;20268;-81
2023/11/20 03:12:34;;;;;;;;;;;;;;;9.35;100.00;100451.47;6184011;23;19920;-82
2023/11/20 03:15:33;;;;;;;;;;;;;;;9.32;100.00;100441.13;6184490;23;19917;-81
2023/11/20 03:18:07;;;;;;;;;;;;;;;9.34;100.00;100439.88;6186445;23;19955;-81
2023/11/20 03:20:36;;;;;;;;;;;;;;;9.33;100.00;100435.53;6131725;23;19916;-81
2023/11/20 03:23:01;;;;;;;;;;;;;;;9.32;100.00;100433.06;6185284;23;20008;-82
2023/11/20 03:25:30;;;;;;;;;;;;;;;9.34;100.00;100439.88;6184975;23;20317;-81
2023/11/20 03:28:04;;;;;;;;;;;;;;;9.34;100.00;100439.06;6184654;23;19919;-81
2023/11/20 03:30:32;;;;;;;;;;;;;;;9.29;100.00;100436.16;6184068;23;20368;-81
2023/11/20 03:33:11;;;;;;;;;;;;;;;9.33;100.00;100438.22;6185382;23;20348;-81
2023/11/20 03:35:36;;;;;;;;;;;;;;;9.27;100.00;100440.88;6184502;23;19915;-81
2023/11/20 03:38:01;;;;;;;;;;;;;;;9.27;100.00;100446.25;6185367;23;19916;-81
2023/11/20 03:45:33;;;;;;;;;;;;;;;9.23;100.00;100435.91;6198591;22;19920;-80
2023/11/20 03:51:04;;;;;;;;;;;;;;;9.33;100.00;100432.03;6185822;23;19939;-80
2023/11/20 03:53:33;;;;;;;;;;;;;;;9.31;100.00;100442.97;6186061;23;19912;-81
2023/11/20 03:55:58;;;;;;;;;;;;;;;9.29;100.00;100449.56;6185300;23;19935;-80
2023/11/20 03:58:30;;;;;;;;;;;;;;;9.24;100.00;100452.88;6185059;23;20412;-81
2023/11/20 04:00:55;;;;;;;;;;;;;;;9.27;100.00;100444.38;6185011;23;19912;-81
2023/11/20 04:03:29;;;;;;;;;;;;;;;9.21;100.00;100455.94;6184087;23;20214;-81
2023/11/20 04:06:00;;;;;;;;;;;;;;;9.21;100.00;100464.00;6183479;23;19919;-81
2023/11/20 04:08:28;;;;;;;;;;;;;;;9.20;100.00;100457.78;6185197;22;19947;-82
2023/11/20 04:11:05;;;;;;;;;;;;;;;9.17;100.00;100447.47;6185391;23;19944;-81
2023/11/20 04:13:33;;;;;;;;;;;;;;;9.18;100.00;100461.69;6185201;23;19968;-81
2023/11/20 04:15:58;;;;;;;;;;;;;;;9.16;100.00;100455.69;6183643;23;19983;-81
2023/11/20 04:18:23;;;;;;;;;;;;;;;9.19;100.00;100464.19;6186141;23;19963;-80
2023/11/20 04:20:48;;;;;;;;;;;;;;;9.24;100.00;100460.94;6185267;23;20340;-80
2023/11/20 04:23:15;;;;;;;;;;;;;;;9.20;100.00;100455.09;6185972;23;20319;-80
2023/11/20 04:25:40;;;;;;;;;;;;;;;9.25;100.00;100460.72;6185104;23;20253;-80
2023/11/20 04:28:06;;;;;;;;;;;;;;;9.28;100.00;100448.72;6186664;23;19912;-80
2023/11/20 04:30:31;;;;;;;;;;;;;;;9.29;100.00;100444.22;6186732;23;19916;-80
2023/11/20 04:32:56;;;;;;;;;;;;;;;9.32;100.00;100459.94;6189626;23;20399;-80
2023/11/20 04:35:24;;;;;;;;;;;;;;;9.34;100.00;100447.13;6187590;23;20285;-80
2023/11/20 04:37:50;;;;;;;;;;;;;;;9.34;100.00;100456.00;6189217;23;19927;-80
2023/11/20 04:40:15;;;;;;;;;;;;;;;9.33;100.00;100450.84;6189892;23;20296;-81
2023/11/20 04:42:41;;;;;;;;;;;;;;;9.31;100.00;100447.53;6195434;23;19912;-80
2023/11/20 04:45:07;;;;;;;;;;;;;;;9.34;100.00;100452.50;6189504;23;19956;-80
2023/11/20 04:47:32;;;;;;;;;;;;;;;9.33;100.00;100450.84;6187124;23;20046;-80
2023/11/20 04:50:00;;;;;;;;;;;;;;;9.31;100.00;100455.59;6183151;23;19955;-80
2023/11/20 04:52:26;;;;;;;;;;;;;;;9.31;100.00;100464.47;6185294;23;19912;-80
2023/11/20 04:54:54;;;;;;;;;;;;;;;9.38;100.00;100453.75;6185931;23;19987;-81
2023/11/20 04:57:20;;;;;;;;;;;;;;;9.34;100.00;100452.50;6185193;23;19916;-80
2023/11/20 04:59:45;;;;;;;;;;;;;;;9.33;100.00;100456.22;6185610;23;19982;-81
2023/11/20 05:02:17;;;;;;;;;;;;;;;9.36;100.00;100458.47;6186360;23;20313;-80
2023/11/20 05:04:42;;;;;;;;;;;;;;;9.33;100.00;100469.66;6183746;23;19932;-80
2023/11/20 05:07:07;;;;;;;;;;;;;;;9.32;100.00;100465.31;6182989;23;20352;-80
2023/11/20 05:09:33;;;;;;;;;;;;;;;9.37;100.00;100462.84;6186434;23;19917;-81
2023/11/20 05:12:00;;;;;;;;;;;;;;;9.40;100.00;100473.19;6193045;23;19927;-80
2023/11/20 05:14:25;;;;;;;;;;;;;;;9.48;100.00;100464.97;6200423;23;20006;-80
2023/11/20 05:16:50;;;;;;;;;;;;;;;9.36;100.00;100472.75;6186821;23;20383;-80
2023/11/20 05:19:25;;;;;;;;;;;;;;;9.42;100.00;100465.75;6184620;22;20245;-81
2023/11/20 05:21:58;;;;;;;;;;;;;;;9.34;100.00;100469.44;6185009;23;19921;-80
2023/11/20 05:24:34;;;;;;;;;;;;;;;9.40;100.00;100457.91;6186114;23;19913;-81
2023/11/20 05:27:09;;;;;;;;;;;;;;;9.44;100.00;100463.72;6183998;23;19912;-80
2023/11/20 05:29:36;;;;;;;;;;;;;;;9.34;100.00;100468.63;6185142;23;19967;-80
2023/11/20 05:32:01;;;;;;;;;;;;;;;9.35;100.00;100472.97;6185849;23;19946;-80
2023/11/20 05:34:26;;;;;;;;;;;;;;;9.36;100.00;100472.75;6185462;23;20410;-80
2023/11/20 05:36:51;;;;;;;;;;;;;;;9.40;100.00;100468.66;6188415;22;19925;-80
2023/11/20 05:39:33;;;;;;;;;;;;;;;9.34;100.00;100472.13;6192115;23;20236;-80
2023/11/20 05:55:49;;;;;;;;;;;;;;;9.27;100.00;100473.13;6185577;23;19919;-83
2023/11/20 06:00:42;;;;;;;;;;;;;;;9.30;100.00;100462.78;6195245;22;19940;-84
2023/11/20 06:18:58;;;;;;;;;;;;;;;9.28;100.00;100493.59;6182074;23;19912;-82
2023/11/20 06:47:41;;;;;;;;;;;;;;;9.19;100.00;100500.97;6185423;23;19966;-83
2023/11/20 07:13:34;;;;;;;;;;;;;;;9.15;100.00;100539.97;6214030;22;20330;-81
2023/11/20 07:33:40;;;;;;;;;;;;;;;9.31;100.00;100549.59;6187403;23;19923;-86
2023/11/20 07:50:55;;;;;;;;;;;;;;;9.32;100.00;100549.41;6219480;23;20280;-87
2023/11/20 08:02:54;;;;;;;;;;;;;;;9.46;100.00;100563.75;6170091;23;20009;-86
2023/11/20 08:40:06;;;;;;;;;;;;;;;;;;;;;
2023/11/20 08:49:16;;;;;;;;;;;;;;;9.59;100.00;100573.75;6215921;23;19944;-84
2023/11/20 08:51:53;;;;;;;;;;;;;;;9.63;100.00;100579.56;6122282;23;19925;-86
2023/11/20 09:08:53;;;;;;;;;;;;;;;9.93;100.00;100579.31;6219504;23;19983;-85
2023/11/20 09:33:51;;;;;;;;;;;;;;;10.38;100.00;100586.94;6196765;23;19963;-84
2023/11/20 09:54:41;;;;;;;;;;;;;;;9.88;100.00;100604.09;6034484;23;19941;-84
2023/11/20 10:03:12;;;;;;;;;;;;;;;9.89;100.00;100594.16;6214367;23;20260;-82
2023/11/20 10:05:47;;;;;;;;;;;;;;;10.25;100.00;100591.25;6186978;23;20002;-83
2023/11/20 10:21:03;;;;;;;;;;;;;;;10.30;100.00;100596.88;6214873;23;19973;-83
2023/11/20 10:23:37;;;;;;;;;;;;;;;10.38;100.00;100595.88;6214378;23;19916;-83
2023/11/20 10:43:44;;;;;;;;;;;;;;;11.32;94.76;100571.72;6183354;23;20222;-83
2023/11/20 10:46:09;;;;;;;;;;;;;;;11.56;94.85;100566.72;6185106;23;19960;-84
2023/11/20 10:54:48;;;;;;;;;;;;;;;11.48;94.41;100564.25;6260170;22;19926;-83
2023/11/20 11:05:42;;;;;;;;;;;;;;;11.71;91.50;100560.25;6192353;22;19931;-85
2023/11/20 11:08:36;;;;;;;;;;;;;;;11.53;91.68;100561.75;6185353;23;20325;-84
2023/11/20 11:17:28;;;;;;;;;;;;;;;11.13;89.90;100546.47;6186136;23;19912;-84
2023/11/20 11:26:22;;;;;;;;;;;;;;;11.74;90.68;100535.56;6181275;23;19943;-84
2023/11/20 11:29:01;;;;;;;;;;;;;;;11.79;88.80;100527.69;6186477;23;19912;-87
2023/11/20 11:31:41;;;;;;;;;;;;;;;11.72;87.77;100532.25;6161358;23;19983;-87
2023/11/20 11:34:11;;;;;;;;;;;;;;;11.82;87.28;100538.88;6165667;23;19927;-86
2023/11/20 11:36:51;;;;;;;;;;;;;;;11.92;87.53;100543.81;6218309;23;19990;-84
2023/11/20 11:39:44;;;;;;;;;;;;;;;12.08;84.40;100530.91;6216704;23;20338;-85
2023/11/20 11:42:37;;;;;;;;;;;;;;;12.30;84.71;100533.28;6217322;23;19999;-85
2023/11/20 11:45:09;;;;;;;;;;;;;;;13.72;76.92;100537.31;6216506;23;20237;-86
2023/11/20 11:47:34;;;;;;;;;;;;;;;13.29;78.56;100535.44;6189636;23;20333;-85
2023/11/20 11:50:16;;;;;;;;;;;;;;;14.18;75.20;100548.63;6215482;23;19926;-86
2023/11/20 11:52:41;;;;;;;;;;;;;;;14.33;73.15;100544.69;6207339;23;20368;-86
2023/11/20 11:55:13;;;;;;;;;;;;;;;14.28;71.91;100539.97;6189315;23;19916;-87
2023/11/20 11:57:42;;;;;;;;;;;;;;;13.87;73.09;100534.22;6215693;23;19919;-87
2023/11/20 12:00:42;;;;;;;;;;;;;;;12.94;76.69;100528.69;6217062;23;19912;-85
2023/11/20 12:09:41;;;;;;;;;;;;;;;12.55;79.18;100514.44;6220695;23;19922;-86
2023/11/20 12:21:09;;;;;;;;;;;;;;;14.98;65.64;100516.84;6217709;23;19934;-87
2023/11/20 12:23:43;;;;;;;;;;;;;;;14.39;68.60;100512.09;6217220;23;19943;-86
2023/11/20 12:29:16;;;;;;;;;;;;;;;13.07;74.98;100505.31;6156109;23;19924;-86
2023/11/20 12:37:50;;;;;;;;;;;;;;;12.36;80.28;100484.66;6196696;23;19939;-85
2023/11/20 12:49:39;;;;;;;;;;;;;;;12.24;77.67;100479.13;6219439;23;19927;-87
2023/11/20 12:58:13;;;;;;;;;;;;;;;12.60;75.52;100476.81;6216742;23;20291;-87
2023/11/20 13:01:04;;;;;;;;;;;;;;;12.78;74.36;100473.34;6217198;23;19919;-86
2023/11/20 13:03:50;;;;;;;;;;;;;;;12.94;75.06;100471.97;6157648;23;19904;-86
2023/11/20 13:06:38;;;;;;;;;;;;;;;13.88;70.80;100478.22;6236769;23;19923;-86
2023/11/20 13:09:42;;;;;;;;;;;;;;;14.07;70.03;100479.00;6217083;23;19911;-87
2023/11/20 13:21:00;;;;;;;;;;;;;;;13.75;69.11;100468.41;6208454;23;19927;-86
2023/11/20 13:23:44;;;;;;;;;;;;;;;14.48;67.70;100474.66;6216431;23;19912;-85
2023/11/20 13:26:11;;;;;;;;;;;;;;;13.94;67.74;100470.03;6209897;23;19922;-85
2023/11/20 13:31:40;;;;;;;;;;;;;;;14.51;67.46;100476.06;6208505;23;19924;-85
2023/11/20 13:34:15;;;;;;;;;;;;;;;13.87;65.53;100471.16;6214812;23;20387;-85
2023/11/20 13:36:55;;;;;;;;;;;;;;;14.13;64.99;100463.72;6215815;23;20526;-86
2023/11/20 13:39:39;;;;;;;;;;;;;;;13.61;65.58;100467.72;6213864;23;19919;-86
2023/11/20 13:45:00;;;;;;;;;;;;;;;13.69;64.07;100464.72;6156266;23;19921;-86
2023/11/20 13:51:08;;;;;;;;;;;;;;;13.42;67.10;100475.84;6164923;23;19920;-84
2023/11/20 13:53:50;;;;;;;;;;;;;;;13.01;69.05;100469.19;6154677;23;19919;-84
2023/11/20 14:05:41;;;;;;;;;;;;;;;11.47;75.21;100471.78;6156809;23;19919;-85
2023/11/20 14:24:00;;;;;;;;;;;;;;;10.71;80.87;100465.91;6154585;23;20334;-84
2023/11/20 14:29:37;;;;;;;;;;;;;;;10.51;80.51;100473.97;6158317;23;19920;-85
2023/11/20 14:35:08;;;;;;;;;;;;;;;10.55;80.68;100463.63;6215010;23;20364;-84
2023/11/20 14:37:43;;;;;;;;;;;;;;;10.57;81.13;100464.25;6214612;23;19920;-84
2023/11/20 14:40:39;;;;;;;;;;;;;;;10.60;80.61;100471.91;6213750;23;20329;-84
2023/11/20 14:43:12;;;;;;;;;;;;;;;10.27;83.03;100472.66;6214200;23;19916;-84
2023/11/20 14:45:40;;;;;;;;;;;;;;;10.19;83.00;100476.38;6214046;23;19911;-84
2023/11/20 14:48:05;;;;;;;;;;;;;;;10.04;83.72;100479.25;6213910;23;20333;-85
2023/11/20 14:50:43;;;;;;;;;;;;;;;9.92;84.88;100486.22;6215006;23;19912;-84
2023/11/20 14:53:14;;;;;;;;;;;;;;;9.92;84.80;100470.09;6214496;23;20283;-84
2023/11/20 14:55:59;;;;;;;;;;;;;;;9.74;86.10;100474.16;6213538;23;19912;-84
2023/11/20 14:58:36;;;;;;;;;;;;;;;9.64;86.49;100477.22;6215681;23;20343;-84
2023/11/20 15:04:14;;;;;;;;;;;;;;;9.82;86.95;100479.38;6215192;23;19923;-84
2023/11/20 15:12:48;;;;;;;;;;;;;;;9.75;87.02;100467.75;6213282;23;19918;-84
2023/11/20 15:15:14;;;;;;;;;;;;;;;9.64;87.51;100458.41;6214134;23;19991;-84
2023/11/20 15:17:51;;;;;;;;;;;;;;;9.28;89.50;100470.22;6213316;23;19916;-84
2023/11/20 15:20:36;;;;;;;;;;;;;;;9.04;91.01;100464.31;6214809;23;19966;-83
2023/11/20 15:23:10;;;;;;;;;;;;;;;8.92;91.51;100463.16;6213880;23;19944;-85
2023/11/20 15:26:00;;;;;;;;;;;;;;;8.85;92.88;100465.00;6213721;23;19916;-84
2023/11/20 15:28:37;;;;;;;;;;;;;;;8.79;93.53;100455.88;6214583;23;19994;-85
2023/11/20 15:34:56;;;;;;;;;;;;;;;8.72;94.96;100466.56;6213459;23;20009;-85
2023/11/20 15:37:47;;;;;;;;;;;;;;;8.72;95.17;100465.72;6214718;23;20360;-86
2023/11/20 15:46:57;;;;;;;;;;;;;;;8.34;96.13;100475.69;6213315;23;19924;-86
2023/11/20 15:50:00;;;;;;;;;;;;;;;8.16;99.18;100483.31;6215298;23;19919;-85
2023/11/20 15:58:46;;;;;;;;;;;;;;;8.03;100.00;100479.50;6214739;23;19971;-86
2023/11/20 16:01:11;;;;;;;;;;;;;;;8.16;100.00;100484.19;6216447;23;20003;-85
2023/11/20 16:03:39;;;;;;;;;;;;;;;8.28;100.00;100487.19;6217469;23;19919;-86
2023/11/20 16:06:13;;;;;;;;;;;;;;;8.35;100.00;100484.56;6216424;23;19987;-85
2023/11/20 16:08:45;;;;;;;;;;;;;;;8.40;100.00;100495.53;6216695;23;19983;-86
2023/11/20 16:13:57;;;;;;;;;;;;;;;8.34;100.00;100497.13;6153452;23;19974;-86
2023/11/20 16:19:46;;;;;;;;;;;;;;;8.12;100.00;100498.16;6219430;23;20304;-87
2023/11/20 16:56:47;;;;;;;;;;;;;;;8.00;100.00;100522.75;6207202;23;19920;-89
2023/11/20 17:08:40;;;;;;;;;;;;;;;8.00;100.00;100514.72;6212445;23;19912;-86
2023/11/20 17:11:09;;;;;;;;;;;;;;;7.99;100.00;100520.28;6211657;23;19962;-87
2023/11/20 17:13:40;;;;;;;;;;;;;;;7.81;100.00;100521.50;6213208;23;20337;-86
2023/11/20 17:28:35;;;;;;;;;;;;;;;7.50;100.00;100519.84;6213860;23;19919;-85
2023/11/20 17:31:37;;;;;;;;;;;;;;;7.56;100.00;100518.28;6211280;23;19935;-85
2023/11/20 17:34:11;;;;;;;;;;;;;;;7.47;100.00;100519.38;6213564;23;19947;-85
2023/11/20 17:36:42;;;;;;;;;;;;;;;7.43;100.00;100516.25;6211579;23;19919;-85
2023/11/20 18:36:11;;;;;;;;;;;;;;;5.31;100.00;100555.50;6213363;23;19960;-83
2023/11/20 19:02:43;;;;;;;;;;;;;;;4.77;100.00;100576.53;6193701;23;19982;-85
2023/11/20 19:05:15;;;;;;;;;;;;;;;4.70;100.00;100573.69;6215493;23;19916;-83
2023/11/20 19:16:36;;;;;;;;;;;;;;;4.82;100.00;100577.72;6197563;23;20283;-84
2023/11/20 19:22:15;;;;;;;;;;;;;;;4.73;100.00;100578.72;6213122;23;19982;-84
2023/11/20 19:24:48;;;;;;;;;;;;;;;4.69;100.00;100577.38;6114724;23;19995;-85
2023/11/20 19:27:46;;;;;;;;;;;;;;;4.70;100.00;100577.22;6219577;23;19919;-85
2023/11/20 19:30:44;;;;;;;;;;;;;;;4.82;100.00;100587.53;6236424;23;19947;-85
2023/11/20 20:51:35;;;;;;;;;;;;;;;5.46;100.00;100610.88;6205754;22;19926;-85
2023/11/20 20:54:39;;;;;;;;;;;;;;;5.49;100.00;100615.88;6154796;23;19930;-84
2023/11/20 20:57:08;;;;;;;;;;;;;;;5.56;100.00;100616.88;6213831;23;19924;-84
2023/11/20 21:05:36;;;;;;;;;;;;;;;5.53;100.00;100619.06;6218267;23;19986;-85
2023/11/20 21:08:36;;;;;;;;;;;;;;;5.44;100.00;100620.91;6217411;23;19935;-85
2023/11/20 21:14:12;;;;;;;;;;;;;;;5.47;100.00;100624.06;6217453;23;19982;-86
2023/11/20 21:16:42;;;;;;;;;;;;;;;5.63;100.00;100630.38;6190779;23;20384;-84
2023/11/20 21:19:10;;;;;;;;;;;;;;;5.64;100.00;100634.72;6217492;23;19912;-86
2023/11/20 21:21:36;;;;;;;;;;;;;;;5.56;100.00;100643.56;6191195;23;19916;-85
2023/11/20 21:27:42;;;;;;;;;;;;;;;5.73;100.00;100644.38;6226169;23;20049;-86
2023/11/20 21:30:11;;;;;;;;;;;;;;;5.78;100.00;100651.88;6218115;23;19923;-85
2023/11/20 21:32:52;;;;;;;;;;;;;;;5.75;100.00;100652.22;6219319;23;19919;-85
2023/11/20 21:40:58;;;;;;;;;;;;;;;6.20;100.00;100656.13;6217921;23;20006;-85
2023/11/20 21:43:42;;;;;;;;;;;;;;;6.21;100.00;100655.09;6214401;23;20072;-85
2023/11/20 21:46:07;;;;;;;;;;;;;;;6.26;100.00;100653.75;6216514;22;20003;-85
2023/11/20 22:09:45;;;;;;;;;;;;;;;6.74;100.00;100673.25;6207635;23;19920;-85
2023/11/20 22:42:03;;;;;;;;;;;;;;;6.88;100.00;100700.28;6185061;23;19919;-85
2023/11/20 22:44:41;;;;;;;;;;;;;;;6.90;100.00;100703.59;6189301;23;19912;-85
2023/11/20 22:56:33;;;;;;;;;;;;;;;6.88;100.00;100709.13;6213142;23;20352;-85
2023/11/20 22:59:15;;;;;;;;;;;;;;;6.90;100.00;100703.59;6214862;23;19916;-87
2023/11/20 23:01:43;;;;;;;;;;;;;;;6.91;100.00;100710.59;6218365;23;19916;-84
2023/11/20 23:04:15;;;;;;;;;;;;;;;6.87;100.00;100704.78;6214247;23;19923;-84
2023/11/20 23:06:40;;;;;;;;;;;;;;;6.93;100.00;100708.59;6215365;23;19916;-85
2023/11/20 23:09:11;;;;;;;;;;;;;;;6.86;100.00;100707.66;6215738;23;20289;-87
2023/11/20 23:11:41;;;;;;;;;;;;;;;6.70;100.00;100706.72;6216309;23;20206;-86
2023/11/20 23:14:06;;;;;;;;;;;;;;;6.62;100.00;100712.91;6212485;23;20384;-86
2023/11/20 23:16:39;;;;;;;;;;;;;;;6.67;100.00;100710.56;6215685;23;21167;-86
2023/11/20 23:22:07;;;;;;;;;;;;;;;6.66;100.00;100735.66;6211737;23;19923;-87
2023/11/20 23:24:39;;;;;;;;;;;;;;;6.64;100.00;100736.84;6218974;23;19900;-87
2023/11/20 23:27:14;;;;;;;;;;;;;;;6.69;100.00;100723.78;6217524;23;19927;-86
2023/11/20 23:29:41;;;;;;;;;;;;;;;6.65;100.00;100728.63;6214689;23;19916;-87
2023/11/20 23:32:06;;;;;;;;;;;;;;;6.61;100.00;100723.81;6217931;23;20043;-86
2023/11/20 23:34:40;;;;;;;;;;;;;;;6.75;100.00;100725.75;6216992;23;19924;-87
2023/11/20 23:37:23;;;;;;;;;;;;;;;6.83;100.00;100724.88;6217943;23;19915;-87
2023/11/20 23:46:09;;;;;;;;;;;;;;;6.61;100.00;100731.84;6220267;23;19927;-86
2023/11/20 23:55:00;;;;;;;;;;;;;;;6.74;100.00;100729.41;6200287;23;19920;-86
2023/11/20 23:57:34;;;;;;;;;;;;;;;6.69;100.00;100734.47;6214342;23;19916;-87
